Aviation Digital Data Service (ADDS)

Output produced by METARs form (0155 UTC 15 August 2020)
found at http://www.aviationweather.gov/metar/data/
 
Forecast for: ZWWW (URUM-QI/DIWOPU , CN)
Text: TAF ZWWW 142102Z 1500/1524 16004MPS CAVOK TX28/1509Z TN19/1500Z
Forecast period: 0000 to 0200 UTC 15 August 2020
Forecast type: FROM: standard forecast or significant change
Winds: from the SSE (160 degrees) at 9 MPH (8 knots; 4.1 m/s)
Visibility: 6 or more miles (10+ km)
Ceiling: unknown
Clouds: missing
Weather: no significant weather forecast for this period
Text: BECMG 1502/1503 36004MPS
Forecast period: 0200 to 1200 UTC 15 August 2020
Forecast type: BECOMING: Conditions expected to become as follows by 0300 UTC 15 August 2020
Winds: from the N (360 degrees) at 9 MPH (8 knots; 4.1 m/s)
Visibility: 6 or more miles (10+ km)
Ceiling: unknown
Clouds: missing
Weather: no significant weather forecast for this period
Text: BECMG 1512/1513 18004MPS
Forecast period: 1200 UTC 15 August 2020 to 0000 UTC 16 August 2020
Forecast type: BECOMING: Conditions expected to become as follows by 1300 UTC 15 August 2020
Winds: from the S (180 degrees) at 9 MPH (8 knots; 4.1 m/s)
Visibility: 6 or more miles (10+ km)
Ceiling: unknown
Clouds: missing
Weather: no significant weather forecast for this period